Terminal Aerodrome Forecast
Issued by NWS

Home | Current Version | Previous Version | Text Only | Print | Product List | Glossary On
Versions: 1 2 3 4 5 6 7 8 9 10 11 12
415
FTUS44 KSJT 092320
TAFBBD
TAF
KBBD 092320Z 1000/1024 VRB04KT P6SM OVC040
     FM100300 VRB03KT P6SM SKC
     FM101800 20009G15KT P6SM SKC
     FM102200 20010KT P6SM OVC100
      AMD NOT SKED=

USA.gov is the U.S. government's official web portal to all federal, state and local government web resources and services.